Time;durP1;ratioP1;P1;durP2;ratioP2;P2;SDS_P1;SDS_P2;PMS_P1;PMS_P2;Temp;Humidity;BMP_temperature;BMP_pressure;BME280_temperature;BME280_humidity;BME280_pressure;Samples;Min_cycle;Max_cycle;Signal;HPM_P1;HPM_P2
2023/10/20 00:00:59;;;;;;;23.63;11.85;;;15.80;99.90;;;;;;5073611;28;20506;-41
2023/10/20 00:03:24;;;;;;;21.15;11.55;;;15.80;99.90;;;;;;5073363;28;20374;-40
2023/10/20 00:05:50;;;;;;;24.40;11.35;;;15.80;99.90;;;;;;5073500;28;20090;-46
2023/10/20 00:08:16;;;;;;;21.77;11.68;;;15.70;99.90;;;;;;5073672;28;20062;-40
2023/10/20 00:10:41;;;;;;;18.25;10.60;;;15.70;99.90;;;;;;5073983;28;20024;-44
2023/10/20 00:13:07;;;;;;;17.90;10.90;;;15.80;99.90;;;;;;5073981;28;20040;-45
2023/10/20 00:15:34;;;;;;;17.38;12.07;;;15.80;99.90;;;;;;5073574;28;20081;-41
2023/10/20 00:18:00;;;;;;;19.58;11.40;;;15.80;99.90;;;;;;5073197;28;20473;-40
2023/10/20 00:20:26;;;;;;;19.33;11.93;;;15.80;99.90;;;;;;5072285;28;20017;-43
2023/10/20 00:22:51;;;;;;;24.23;12.27;;;15.70;99.90;;;;;;5073618;28;20083;-41
2023/10/20 00:25:17;;;;;;;23.65;12.75;;;15.80;99.90;;;;;;5071904;28;20485;-46
2023/10/20 00:27:43;;;;;;;18.77;12.20;;;15.80;99.90;;;;;;5072310;28;20020;-40
2023/10/20 00:30:12;;;;;;;25.77;12.55;;;15.80;99.90;;;;;;5073192;28;20081;-40
2023/10/20 00:32:40;;;;;;;28.73;13.32;;;15.80;99.90;;;;;;5073155;28;20066;-43
2023/10/20 00:35:09;;;;;;;20.27;13.00;;;15.70;99.90;;;;;;5072404;28;20020;-40
2023/10/20 00:37:35;;;;;;;26.17;13.13;;;15.80;99.90;;;;;;5073323;28;20029;-41
2023/10/20 00:40:07;;;;;;;22.38;12.18;;;15.80;99.90;;;;;;5072829;28;20013;-41
2023/10/20 00:42:33;;;;;;;25.58;12.63;;;15.70;99.90;;;;;;5072797;28;20101;-40
2023/10/20 00:44:59;;;;;;;17.92;11.90;;;15.70;99.90;;;;;;5073114;28;20421;-42
2023/10/20 00:47:26;;;;;;;19.13;12.75;;;15.70;99.90;;;;;;5072417;28;20017;-43
2023/10/20 00:49:52;;;;;;;22.00;13.55;;;15.70;99.90;;;;;;5073124;28;20056;-42
2023/10/20 00:52:19;;;;;;;20.40;12.48;;;15.70;99.90;;;;;;5073289;28;20456;-41
2023/10/20 00:54:47;;;;;;;22.48;12.15;;;15.80;99.90;;;;;;5073071;28;20027;-44
2023/10/20 00:57:16;;;;;;;20.25;12.98;;;15.80;99.90;;;;;;5072777;28;20024;-39
2023/10/20 00:59:42;;;;;;;19.48;12.18;;;15.80;99.90;;;;;;5072773;28;20029;-40
2023/10/20 01:02:08;;;;;;;21.30;11.32;;;15.80;99.90;;;;;;5072700;28;20043;-40
2023/10/20 01:04:34;;;;;;;22.02;11.77;;;15.80;99.90;;;;;;5072011;28;20020;-40
2023/10/20 01:06:59;;;;;;;27.90;12.20;;;15.80;99.90;;;;;;5070807;28;20024;-40
2023/10/20 01:09:26;;;;;;;20.23;12.85;;;15.80;99.90;;;;;;5072766;28;20034;-42
2023/10/20 01:11:53;;;;;;;20.00;12.93;;;15.80;99.90;;;;;;5072667;28;20028;-42
2023/10/20 01:14:19;;;;;;;18.27;12.05;;;15.70;99.90;;;;;;5072679;28;20385;-39
2023/10/20 01:16:44;;;;;;;22.95;13.60;;;15.60;99.90;;;;;;5072754;28;20028;-43
2023/10/20 01:19:10;;;;;;;22.60;12.40;;;15.60;99.90;;;;;;5073071;28;20100;-42
2023/10/20 01:21:36;;;;;;;26.95;13.13;;;15.60;99.90;;;;;;5072460;28;20028;-41
2023/10/20 01:24:04;;;;;;;20.95;12.50;;;15.60;99.90;;;;;;5072449;28;20029;-42
2023/10/20 01:26:33;;;;;;;25.67;14.02;;;15.60;99.90;;;;;;5072425;28;20017;-43
2023/10/20 01:28:59;;;;;;;31.25;13.48;;;15.60;99.90;;;;;;5072753;28;20032;-41
2023/10/20 01:31:25;;;;;;;29.67;14.60;;;15.60;99.90;;;;;;5054510;28;20029;-43
2023/10/20 01:33:51;;;;;;;23.25;13.32;;;15.50;99.90;;;;;;5072554;28;20035;-44
2023/10/20 01:36:17;;;;;;;23.48;15.10;;;15.50;99.90;;;;;;5080835;28;20021;-43
2023/10/20 01:38:43;;;;;;;29.08;14.32;;;15.50;99.90;;;;;;5072486;28;20028;-45
2023/10/20 01:41:08;;;;;;;24.85;15.10;;;15.60;99.90;;;;;;5072268;28;20029;-42
2023/10/20 01:43:34;;;;;;;27.05;14.32;;;15.50;99.90;;;;;;5072378;28;20039;-44
2023/10/20 01:46:03;;;;;;;23.85;14.52;;;15.50;99.90;;;;;;5072284;28;20078;-41
2023/10/20 01:48:32;;;;;;;30.38;16.90;;;15.40;99.90;;;;;;5072483;28;20021;-43
2023/10/20 01:51:00;;;;;;;26.52;14.90;;;15.40;99.90;;;;;;5072016;28;20303;-44
2023/10/20 01:53:26;;;;;;;;;;;15.30;99.90;;;;;;5054807;28;20021;-41
2023/10/20 01:55:51;;;;;;;28.85;14.48;;;15.30;99.90;;;;;;5071627;28;19962;-40
2023/10/20 01:58:18;;;;;;;28.67;15.70;;;15.20;99.90;;;;;;5072430;28;20121;-44
2023/10/20 02:00:48;;;;;;;23.30;13.68;;;15.30;99.90;;;;;;5054282;28;20035;-40
2023/10/20 02:03:13;;;;;;;29.17;14.70;;;15.20;99.90;;;;;;5072618;28;20024;-43
2023/10/20 02:05:39;;;;;;;28.35;14.23;;;15.20;99.90;;;;;;5072589;28;20043;-43
2023/10/20 02:08:05;;;;;;;22.20;13.05;;;15.10;99.90;;;;;;5072013;28;20032;-41
2023/10/20 02:10:31;;;;;;;28.42;14.93;;;15.10;99.90;;;;;;5072031;28;20023;-40
2023/10/20 02:12:56;;;;;;;30.48;14.48;;;15.00;99.90;;;;;;5072099;28;20032;-40
2023/10/20 02:15:22;;;;;;;31.25;14.52;;;15.00;99.90;;;;;;5072289;28;20086;-44
2023/10/20 02:17:48;;;;;;;28.98;14.23;;;14.90;99.90;;;;;;5072459;28;20025;-41
2023/10/20 02:20:15;;;;;;;34.03;15.60;;;14.90;99.90;;;;;;5072236;28;20020;-42
2023/10/20 02:22:43;;;;;;;26.83;13.95;;;14.80;99.90;;;;;;5072454;28;20031;-42
2023/10/20 02:25:10;;;;;;;29.73;14.50;;;14.80;99.90;;;;;;5065934;28;20392;-44
2023/10/20 02:27:36;;;;;;;35.00;15.02;;;14.80;99.90;;;;;;5076020;28;20025;-39
2023/10/20 02:30:03;;;;;;;28.50;13.90;;;14.70;99.90;;;;;;5075609;28;20126;-42
2023/10/20 02:32:28;;;;;;;31.77;15.80;;;14.60;99.90;;;;;;5079442;28;20099;-41
2023/10/20 02:34:54;;;;;;;32.05;14.38;;;14.50;99.90;;;;;;5095908;28;20103;-40
2023/10/20 02:37:20;;;;;;;31.10;13.60;;;14.50;99.90;;;;;;5095886;28;20464;-41
2023/10/20 02:39:46;;;;;;;28.10;14.45;;;14.40;99.90;;;;;;5095866;28;20531;-38
2023/10/20 02:42:12;;;;;;;30.63;14.10;;;14.30;99.90;;;;;;5062906;28;20028;-38
2023/10/20 02:44:38;;;;;;;30.08;14.27;;;14.20;99.90;;;;;;5071621;28;20386;-40
2023/10/20 02:47:03;;;;;;;24.65;12.60;;;14.20;99.90;;;;;;5057560;28;20032;-43
2023/10/20 02:49:29;;;;;;;25.80;13.70;;;14.20;99.90;;;;;;5070007;28;20048;-44
2023/10/20 02:51:55;;;;;;;29.88;13.48;;;14.20;99.90;;;;;;5063659;28;20511;-40
2023/10/20 02:54:21;;;;;;;25.67;13.32;;;14.20;99.90;;;;;;5075204;28;20025;-38
2023/10/20 02:56:46;;;;;;;26.60;13.20;;;14.20;99.90;;;;;;5075225;28;20016;-40
2023/10/20 02:59:12;;;;;;;30.42;14.65;;;14.10;99.90;;;;;;5057176;28;20074;-39
2023/10/20 03:01:38;;;;;;;27.70;13.57;;;14.10;99.90;;;;;;5075201;28;20025;-38
2023/10/20 03:04:04;;;;;;;30.27;13.98;;;14.00;99.90;;;;;;5057335;28;20027;-40
2023/10/20 03:06:29;;;;;;;32.10;12.80;;;14.00;99.90;;;;;;5075059;28;20036;-39
2023/10/20 03:08:55;;;;;;;27.73;13.00;;;13.90;99.90;;;;;;5075038;28;20028;-40
2023/10/20 03:11:21;;;;;;;38.63;15.30;;;13.90;99.90;;;;;;5074644;28;20154;-37
2023/10/20 03:13:46;;;;;;;30.05;13.43;;;13.90;99.90;;;;;;5075212;28;20492;-40
2023/10/20 03:16:12;;;;;;;32.35;14.25;;;13.80;99.90;;;;;;5074781;28;20033;-37
2023/10/20 03:18:56;;;;;;;29.17;14.48;;;13.70;99.90;;;;;;5056747;28;20493;-38
2023/10/20 03:21:23;;;;;;;31.73;14.65;;;13.70;99.90;;;;;;5054820;28;20025;-38
2023/10/20 03:23:49;;;;;;;30.00;14.90;;;13.70;99.90;;;;;;5054993;28;20036;-38
2023/10/20 03:26:14;;;;;;;25.63;13.98;;;13.70;99.90;;;;;;5054896;28;20021;-39
2023/10/20 03:28:41;;;;;;;35.70;14.23;;;13.70;99.90;;;;;;5074762;28;20039;-39
2023/10/20 03:31:07;;;;;;;32.63;13.88;;;13.70;99.90;;;;;;5074591;28;20044;-44
2023/10/20 03:33:32;;;;;;;33.22;13.82;;;13.60;99.90;;;;;;5074849;28;20017;-38
2023/10/20 03:36:03;;;;;;;28.48;13.77;;;13.50;99.90;;;;;;5073566;28;20029;-39
2023/10/20 03:38:29;;;;;;;36.47;14.35;;;13.40;99.90;;;;;;5073882;28;20021;-41
2023/10/20 03:41:07;;;;;;;40.78;14.07;;;13.40;99.90;;;;;;5054523;28;20052;-41
2023/10/20 03:43:34;;;;;;;;;;;13.40;99.90;;;;;;5066404;28;20041;-41
2023/10/20 03:46:00;;;;;;;28.83;13.90;;;13.40;99.90;;;;;;5070649;28;19908;-41
2023/10/20 03:48:29;;;;;;;27.50;12.93;;;13.40;99.90;;;;;;5074590;28;20499;-40
2023/10/20 03:50:55;;;;;;;28.63;12.38;;;13.30;99.90;;;;;;5074305;28;20040;-39
2023/10/20 03:53:27;;;;;;;31.55;13.18;;;13.30;99.90;;;;;;5074153;28;20020;-40
2023/10/20 03:56:07;;;;;;;48.30;14.40;;;13.30;99.90;;;;;;5074093;28;20055;-41
2023/10/20 03:58:35;;;;;;;28.88;12.63;;;13.30;99.90;;;;;;5073684;28;20027;-39
2023/10/20 04:01:02;;;;;;;39.00;13.60;;;13.20;99.90;;;;;;5073676;28;20483;-43
2023/10/20 04:03:30;;;;;;;34.92;13.88;;;13.20;99.90;;;;;;5073842;28;20077;-41
2023/10/20 04:05:55;;;;;;;27.80;13.02;;;13.20;99.90;;;;;;5073628;28;20154;-41
2023/10/20 04:08:22;;;;;;;35.20;12.57;;;13.20;99.90;;;;;;5073740;28;20060;-40
2023/10/20 04:10:48;;;;;;;30.63;13.68;;;13.10;99.90;;;;;;5056303;28;20513;-42
2023/10/20 04:13:14;;;;;;;32.50;13.40;;;13.00;99.90;;;;;;5063703;28;20048;-43
2023/10/20 04:15:42;;;;;;;28.42;12.93;;;13.00;99.90;;;;;;5053794;28;20017;-39
2023/10/20 04:18:09;;;;;;;31.02;13.55;;;13.00;99.90;;;;;;5053702;28;20020;-42
2023/10/20 04:20:39;;;;;;;35.38;13.73;;;13.00;99.90;;;;;;5067154;28;20474;-40
2023/10/20 04:23:07;;;;;;;29.48;12.73;;;12.90;99.90;;;;;;5060391;28;20033;-40
2023/10/20 04:25:39;;;;;;;32.58;12.27;;;12.90;99.90;;;;;;5055798;28;20025;-40
2023/10/20 04:56:06;;;;;;;28.27;12.60;;;12.60;99.90;;;;;;5073106;28;20025;-41
2023/10/20 04:57:52;;;;;;;26.42;11.80;;;12.60;99.90;;;;;;5072838;28;20029;-43
2023/10/20 05:08:04;;;;;;;25.55;11.85;;;12.60;99.90;;;;;;5055372;28;20043;-43
2023/10/20 05:10:29;;;;;;;32.53;12.93;;;12.60;99.90;;;;;;5072707;28;20024;-44
2023/10/20 05:12:55;;;;;;;30.05;12.63;;;12.50;99.90;;;;;;5072964;28;20026;-43
2023/10/20 05:15:21;;;;;;;32.10;12.60;;;12.50;99.90;;;;;;5072363;28;20528;-40
2023/10/20 05:17:47;;;;;;;28.98;12.60;;;12.50;99.90;;;;;;5072913;28;20009;-41
2023/10/20 05:20:13;;;;;;;29.02;12.68;;;12.50;99.90;;;;;;5072697;28;20035;-42
2023/10/20 05:22:40;;;;;;;29.15;12.35;;;12.40;99.90;;;;;;5072987;28;20024;-39
2023/10/20 05:25:07;;;;;;;32.50;14.18;;;12.50;99.90;;;;;;5071970;28;20067;-39
2023/10/20 05:27:32;;;;;;;29.80;13.63;;;12.40;99.90;;;;;;5072759;28;20079;-44
2023/10/20 05:29:58;;;;;;;28.95;12.07;;;12.40;99.90;;;;;;5072381;28;20032;-43
2023/10/20 05:32:24;;;;;;;28.52;11.80;;;12.40;99.90;;;;;;5072880;28;20025;-44
2023/10/20 05:34:54;;;;;;;25.75;10.88;;;12.30;99.90;;;;;;5072478;28;20027;-41
2023/10/20 05:37:23;;;;;;;30.40;12.73;;;12.30;99.90;;;;;;5072547;28;20103;-42
2023/10/20 05:39:49;;;;;;;32.47;12.30;;;12.40;99.90;;;;;;5072559;28;20096;-41
2023/10/20 05:42:16;;;;;;;33.95;13.48;;;12.30;99.90;;;;;;5072417;28;20151;-40
2023/10/20 05:44:58;;;;;;;35.00;12.25;;;12.30;99.90;;;;;;5071857;28;20416;-41
2023/10/20 05:47:25;;;;;;;24.42;12.05;;;12.30;99.90;;;;;;5072798;28;20028;-41
2023/10/20 05:49:51;;;;;;;22.60;9.75;;;12.30;99.90;;;;;;5072473;28;20436;-42
2023/10/20 05:52:17;;;;;;;27.30;12.15;;;12.30;99.90;;;;;;5072350;28;20039;-41
2023/10/20 05:54:43;;;;;;;29.25;11.43;;;12.30;99.90;;;;;;5072353;28;20096;-40
2023/10/20 05:57:08;;;;;;;29.95;11.85;;;12.30;99.90;;;;;;5072394;28;20490;-41
2023/10/20 05:59:34;;;;;;;24.77;9.98;;;12.20;99.90;;;;;;5072117;28;20017;-40
2023/10/20 06:02:03;;;;;;;22.02;11.02;;;12.30;99.90;;;;;;5058094;28;20139;-45
2023/10/20 06:04:29;;;;;;;19.10;8.85;;;12.30;99.90;;;;;;5076187;28;20063;-39
2023/10/20 06:07:13;;;;;;;23.67;9.98;;;12.30;99.90;;;;;;5076355;28;20056;-39
2023/10/20 06:09:39;;;;;;;19.08;8.65;;;12.30;99.90;;;;;;5076211;28;20036;-40
2023/10/20 06:12:07;;;;;;;22.27;8.85;;;12.20;99.90;;;;;;5075817;28;20036;-43
2023/10/20 06:14:33;;;;;;;21.90;9.52;;;12.30;99.90;;;;;;5075658;28;20123;-38
2023/10/20 06:16:58;;;;;;;18.80;8.57;;;12.20;99.90;;;;;;5075995;28;20099;-40
2023/10/20 06:19:24;;;;;;;18.88;8.02;;;12.20;99.90;;;;;;5075884;28;20028;-39
2023/10/20 06:21:50;;;;;;;17.20;7.60;;;12.10;99.90;;;;;;5075657;28;20074;-41
2023/10/20 06:24:16;;;;;;;15.50;7.38;;;12.10;99.90;;;;;;5075999;28;20504;-39
2023/10/20 06:26:42;;;;;;;19.52;8.18;;;12.10;99.90;;;;;;5076100;28;20025;-42
2023/10/20 06:31:51;;;;;;;14.27;6.40;;;12.10;99.90;;;;;;5075512;28;20024;-38
2023/10/20 06:34:27;;;;;;;15.98;7.13;;;12.00;99.90;;;;;;5057749;28;20413;-40
2023/10/20 06:39:44;;;;;;;10.38;6.40;;;11.90;99.90;;;;;;5036750;28;20055;-38
2023/10/20 06:42:10;;;;;;;12.57;5.57;;;11.90;99.90;;;;;;5056575;28;20044;-40
2023/10/20 06:44:36;;;;;;;12.18;6.25;;;11.80;99.90;;;;;;5074402;28;20135;-38
2023/10/20 06:47:02;;;;;;;12.48;6.35;;;11.80;99.90;;;;;;5075123;28;20477;-42
2023/10/20 06:49:28;;;;;;;12.57;5.50;;;11.80;99.90;;;;;;5074946;28;20021;-39
2023/10/20 06:51:53;;;;;;;13.13;6.00;;;11.80;99.90;;;;;;5075119;28;20078;-40
2023/10/20 06:54:19;;;;;;;10.35;5.47;;;11.80;99.90;;;;;;5075326;28;20481;-38
2023/10/20 06:56:45;;;;;;;11.20;5.07;;;11.80;99.90;;;;;;5055753;28;20469;-42
2023/10/20 06:59:15;;;;;;;11.65;6.40;;;11.80;99.90;;;;;;5066760;28;20377;-39
2023/10/20 07:01:41;;;;;;;11.95;5.95;;;11.80;99.90;;;;;;5055094;28;20031;-38
2023/10/20 07:04:10;;;;;;;12.25;6.57;;;11.70;99.90;;;;;;5046572;28;20517;-39
2023/10/20 07:06:36;;;;;;;11.40;5.30;;;11.70;99.90;;;;;;5074225;28;20028;-38
2023/10/20 07:09:11;;;;;;;10.68;4.97;;;11.60;99.90;;;;;;5074907;28;20078;-39
2023/10/20 07:11:38;;;;;;;12.73;5.95;;;11.60;99.90;;;;;;5074725;28;20028;-38
2023/10/20 07:14:07;;;;;;;15.43;5.70;;;11.60;99.90;;;;;;5074317;28;20025;-41
2023/10/20 07:16:33;;;;;;;21.00;6.45;;;11.60;99.90;;;;;;5074856;28;20488;-39
2023/10/20 07:19:00;;;;;;;12.50;5.22;;;11.60;99.90;;;;;;5073586;28;20021;-39
2023/10/20 07:21:25;;;;;;;13.93;6.35;;;11.50;99.90;;;;;;5074855;28;20028;-39
2023/10/20 07:23:52;;;;;;;8.85;5.25;;;11.50;99.90;;;;;;5074003;28;20029;-39
2023/10/20 07:26:18;;;;;;;13.43;6.25;;;11.50;99.90;;;;;;5074923;28;20492;-37
2023/10/20 07:28:47;;;;;;;13.23;6.00;;;11.50;99.90;;;;;;5072453;28;20066;-37
2023/10/20 07:31:13;;;;;;;11.18;6.03;;;11.40;99.90;;;;;;5074152;28;20038;-37
2023/10/20 07:33:39;;;;;;;17.75;6.80;;;11.40;99.90;;;;;;5074572;28;20025;-37
2023/10/20 07:36:05;;;;;;;14.40;6.70;;;11.40;99.90;;;;;;5074833;28;20027;-36
2023/10/20 07:38:31;;;;;;;12.63;7.00;;;11.40;99.90;;;;;;5074438;28;20033;-37
2023/10/20 07:41:04;;;;;;;17.15;6.13;;;11.30;99.90;;;;;;5074484;28;20025;-37
2023/10/20 07:43:30;;;;;;;19.38;6.68;;;11.30;99.90;;;;;;5073770;28;20072;-37
2023/10/20 07:45:55;;;;;;;15.02;5.97;;;11.30;99.90;;;;;;5073762;28;20021;-37
2023/10/20 07:48:21;;;;;;;13.30;5.88;;;11.30;99.90;;;;;;5073255;28;20495;-39
2023/10/20 07:50:47;;;;;;;13.55;6.40;;;11.30;99.90;;;;;;5071307;28;20024;-37
2023/10/20 07:53:13;;;;;;;15.60;6.28;;;11.30;99.90;;;;;;5054144;28;20071;-37
2023/10/20 07:55:39;;;;;;;11.57;5.80;;;11.30;99.90;;;;;;5059287;28;20021;-37
2023/10/20 07:58:04;;;;;;;12.65;5.45;;;11.20;99.90;;;;;;5074065;28;20028;-37
2023/10/20 08:00:31;;;;;;;11.20;5.72;;;11.20;99.90;;;;;;5073751;28;20104;-38
2023/10/20 08:02:56;;;;;;;11.05;5.38;;;11.30;99.90;;;;;;5073308;28;20056;-36
2023/10/20 08:05:41;;;;;;;9.88;5.13;;;11.30;99.90;;;;;;5073513;28;20048;-37
2023/10/20 08:08:06;;;;;;;12.27;5.03;;;11.10;99.90;;;;;;5063444;28;20032;-36
2023/10/20 08:10:33;;;;;;;13.13;5.53;;;11.10;99.90;;;;;;5035981;28;20059;-36
2023/10/20 08:12:59;;;;;;;7.47;4.28;;;11.10;99.90;;;;;;5072913;28;20062;-38
2023/10/20 08:15:28;;;;;;;13.60;5.50;;;11.10;99.90;;;;;;5073676;28;20059;-38
2023/10/20 08:17:54;;;;;;;12.40;4.63;;;11.10;99.90;;;;;;5073175;28;20032;-39
2023/10/20 08:20:20;;;;;;;16.88;5.00;;;11.00;99.90;;;;;;5071399;28;20070;-36
2023/10/20 08:22:46;;;;;;;16.48;5.50;;;11.00;99.90;;;;;;5072045;28;20032;-37
2023/10/20 08:25:12;;;;;;;10.20;5.13;;;10.90;99.90;;;;;;5070501;28;20020;-36
2023/10/20 08:27:38;;;;;;;8.95;4.57;;;10.90;99.90;;;;;;5073397;28;20024;-36
2023/10/20 08:30:04;;;;;;;10.20;4.78;;;10.90;99.90;;;;;;5073460;28;20024;-35
2023/10/20 08:32:30;;;;;;;8.88;4.55;;;11.00;99.90;;;;;;5073340;28;20029;-40
2023/10/20 08:34:56;;;;;;;9.65;3.78;;;11.00;99.90;;;;;;5073031;28;20024;-36
2023/10/20 08:37:22;;;;;;;12.63;4.07;;;11.00;99.90;;;;;;5071896;28;20017;-34
2023/10/20 08:39:48;;;;;;;9.18;4.65;;;11.00;99.90;;;;;;5072640;28;20474;-35
2023/10/20 08:42:19;;;;;;;7.97;3.70;;;11.00;99.90;;;;;;5072860;28;20028;-36
2023/10/20 08:44:46;;;;;;;8.32;3.42;;;10.90;99.90;;;;;;5089916;28;20052;-35
2023/10/20 08:47:19;;;;;;;5.22;3.58;;;10.90;99.90;;;;;;5085679;28;20039;-36
2023/10/20 08:49:46;;;;;;;7.30;3.67;;;10.80;99.90;;;;;;5072743;28;20484;-36
2023/10/20 08:52:12;;;;;;;8.82;4.00;;;10.80;99.90;;;;;;5073002;28;20477;-36
2023/10/20 08:54:38;;;;;;;6.53;3.20;;;10.80;99.90;;;;;;5073067;28;20480;-36
2023/10/20 08:57:05;;;;;;;6.70;3.85;;;10.80;99.90;;;;;;5054436;28;20060;-36
2023/10/20 08:59:35;;;;;;;5.40;3.50;;;10.80;99.90;;;;;;5072948;28;20482;-37
2023/10/20 09:02:01;;;;;;;6.50;3.45;;;10.70;99.90;;;;;;5054968;28;20028;-36
2023/10/20 09:04:28;;;;;;;3.40;2.35;;;10.60;99.90;;;;;;5073187;28;20039;-36
2023/10/20 09:06:54;;;;;;;3.92;2.70;;;10.60;99.90;;;;;;5072400;28;20021;-36
2023/10/20 09:09:21;;;;;;;3.28;2.47;;;10.60;99.90;;;;;;5053881;28;20107;-36
2023/10/20 09:11:47;;;;;;;7.05;3.00;;;10.60;99.90;;;;;;5068658;28;20025;-36
2023/10/20 09:14:14;;;;;;;4.55;2.40;;;10.50;99.90;;;;;;5071656;28;20033;-37
2023/10/20 09:16:40;;;;;;;4.93;2.53;;;10.60;99.90;;;;;;5061872;28;20021;-35
2023/10/20 09:19:09;;;;;;;4.38;2.10;;;10.60;99.90;;;;;;5061652;28;20485;-35
2023/10/20 09:21:37;;;;;;;3.33;2.30;;;10.70;99.90;;;;;;5072278;28;20028;-36
2023/10/20 09:24:04;;;;;;;4.85;2.30;;;10.60;99.90;;;;;;5070748;28;20067;-35
2023/10/20 09:26:34;;;;;;;4.32;2.25;;;10.60;99.90;;;;;;5072295;28;20031;-36
2023/10/20 09:29:00;;;;;;;4.40;2.05;;;10.50;99.90;;;;;;5057530;28;20104;-37
2023/10/20 09:31:27;;;;;;;4.43;1.88;;;10.50;99.90;;;;;;5072199;28;20024;-34
2023/10/20 09:33:53;;;;;;;2.50;1.90;;;10.50;99.90;;;;;;5073263;28;20028;-35
2023/10/20 09:36:19;;;;;;;1.88;1.67;;;10.50;99.90;;;;;;5076763;28;20495;-34
2023/10/20 09:38:53;;;;;;;1.98;1.40;;;10.50;99.90;;;;;;5076705;28;20393;-34
2023/10/20 09:41:28;;;;;;;1.52;1.42;;;10.50;99.90;;;;;;5076983;28;20530;-34
2023/10/20 09:44:08;;;;;;;6.18;1.90;;;10.60;99.90;;;;;;5076184;28;20055;-36
2023/10/20 09:46:38;;;;;;;3.08;2.00;;;10.60;99.90;;;;;;5076469;28;20104;-35
2023/10/20 09:49:14;;;;;;;3.10;1.48;;;10.50;99.90;;;;;;5076460;28;20187;-34
2023/10/20 09:51:43;;;;;;;1.88;1.42;;;10.40;99.90;;;;;;5076583;28;20378;-34
2023/10/20 09:56:53;;;;;;;2.67;2.00;;;10.40;99.90;;;;;;5076258;28;20044;-34
2023/10/20 09:59:20;;;;;;;1.40;1.30;;;10.30;99.90;;;;;;5056442;28;20024;-34
2023/10/20 10:01:46;;;;;;;2.47;1.20;;;10.30;99.90;;;;;;5040973;28;20043;-34
2023/10/20 10:04:13;;;;;;;7.50;1.65;;;10.30;99.90;;;;;;5074736;28;20020;-35
2023/10/20 10:06:42;;;;;;;5.07;1.38;;;10.30;99.90;;;;;;5075318;28;20031;-36
2023/10/20 10:09:08;;;;;;;3.33;1.17;;;10.30;99.90;;;;;;5075745;28;20050;-37
2023/10/20 10:11:42;;;;;;;1.20;1.10;;;10.30;99.90;;;;;;5076201;28;20024;-35
2023/10/20 10:14:17;;;;;;;1.70;1.13;;;10.20;99.90;;;;;;5075787;28;20385;-35
2023/10/20 10:16:56;;;;;;;1.40;0.80;;;10.20;99.90;;;;;;5075774;28;20082;-34
2023/10/20 10:19:26;;;;;;;4.28;0.90;;;10.20;99.90;;;;;;5075806;28;20511;-35
2023/10/20 10:21:54;;;;;;;2.63;1.00;;;10.20;99.90;;;;;;5075521;28;20470;-33
2023/10/20 10:24:20;;;;;;;;;;;10.10;99.90;;;;;;5076496;28;20111;-35
2023/10/20 10:27:03;;;;;;;1.67;0.80;;;10.10;99.90;;;;;;5075816;28;19909;-35
2023/10/20 10:29:47;;;;;;;1.55;1.02;;;10.10;99.90;;;;;;5075357;28;20040;-34
2023/10/20 10:32:13;;;;;;;2.08;0.90;;;10.20;99.90;;;;;;5075572;28;20037;-33
2023/10/20 10:34:47;;;;;;;1.77;0.70;;;10.20;99.90;;;;;;5075843;28;20477;-33
2023/10/20 10:37:16;;;;;;;1.70;0.70;;;10.20;99.90;;;;;;5075011;28;20082;-34
2023/10/20 10:39:42;;;;;;;1.42;0.93;;;10.10;99.90;;;;;;5075754;28;20024;-34
2023/10/20 10:42:08;;;;;;;0.70;0.70;;;10.10;99.90;;;;;;5075148;28;20052;-35
2023/10/20 10:44:37;;;;;;;1.23;0.63;;;10.20;99.90;;;;;;5075266;28;20451;-35
2023/10/20 10:47:04;;;;;;;6.07;0.77;;;10.20;99.90;;;;;;5074874;28;20465;-35
2023/10/20 10:49:33;;;;;;;0.57;0.57;;;10.20;99.90;;;;;;5074155;28;20037;-36
2023/10/20 10:52:07;;;;;;;0.70;0.65;;;10.20;99.90;;;;;;5075157;28;20033;-35
2023/10/20 10:54:33;;;;;;;1.00;0.63;;;10.20;99.90;;;;;;5075265;28;20116;-36
2023/10/20 10:57:06;;;;;;;0.60;0.60;;;10.10;99.90;;;;;;5075312;28;20056;-36
2023/10/20 10:59:32;;;;;;;1.38;0.60;;;10.10;99.90;;;;;;5075185;28;20024;-35
2023/10/20 11:02:01;;;;;;;0.50;0.50;;;10.20;99.90;;;;;;5075149;28;20036;-34
2023/10/20 11:04:27;;;;;;;1.33;0.50;;;10.20;99.90;;;;;;5075174;28;20036;-35
2023/10/20 11:06:53;;;;;;;0.98;0.50;;;10.20;99.90;;;;;;5056593;28;20105;-36
2023/10/20 11:09:27;;;;;;;0.70;0.55;;;10.20;99.90;;;;;;5071954;28;20025;-36
2023/10/20 11:11:53;;;;;;;1.05;0.95;;;10.20;99.90;;;;;;5074229;28;20481;-35
2023/10/20 11:14:19;;;;;;;0.60;0.38;;;10.20;99.90;;;;;;5073704;28;20025;-33
2023/10/20 11:16:45;;;;;;;0.75;0.73;;;10.20;99.90;;;;;;5074173;28;20096;-35
2023/10/20 11:19:13;;;;;;;1.65;0.68;;;10.20;99.90;;;;;;5074743;28;20024;-35
2023/10/20 11:21:47;;;;;;;1.02;0.65;;;10.20;99.90;;;;;;5074587;28;20390;-35
2023/10/20 11:24:25;;;;;;;3.45;1.23;;;10.10;99.90;;;;;;5056763;28;20029;-35
2023/10/20 11:26:55;;;;;;;0.98;0.95;;;10.10;99.90;;;;;;5075054;28;20055;-34
2023/10/20 11:29:21;;;;;;;0.77;0.60;;;10.20;99.90;;;;;;5074539;28;20245;-35
2023/10/20 11:31:48;;;;;;;1.30;0.93;;;10.10;99.90;;;;;;5070922;28;20119;-36
2023/10/20 11:34:13;;;;;;;0.90;0.68;;;10.10;99.90;;;;;;5074570;28;20020;-34
2023/10/20 11:36:39;;;;;;;0.47;0.40;;;10.10;99.90;;;;;;5073954;28;20025;-33
2023/10/20 11:39:06;;;;;;;0.93;0.80;;;10.20;99.90;;;;;;5073924;28;20510;-36
2023/10/20 11:41:32;;;;;;;1.40;0.70;;;10.10;99.90;;;;;;5074677;28;20049;-33
2023/10/20 11:43:58;;;;;;;0.50;0.40;;;10.20;99.90;;;;;;5073927;28;20057;-36
2023/10/20 11:46:24;;;;;;;1.45;0.63;;;10.20;99.90;;;;;;5068736;28;20040;-34
2023/10/20 11:48:49;;;;;;;1.00;0.70;;;10.20;99.90;;;;;;5058996;28;20481;-52
2023/10/20 11:51:15;;;;;;;0.50;0.50;;;10.30;99.90;;;;;;5073999;28;20397;-51
2023/10/20 11:53:41;;;;;;;0.75;0.60;;;10.30;99.90;;;;;;5074146;28;20059;-48
2023/10/20 11:56:07;;;;;;;0.93;0.93;;;10.30;99.90;;;;;;5074058;28;20396;-50
2023/10/20 11:58:33;;;;;;;1.02;0.80;;;10.30;99.90;;;;;;5073188;28;20017;-52
2023/10/20 12:00:59;;;;;;;0.70;0.63;;;10.30;99.90;;;;;;5073925;28;20044;-52
2023/10/20 12:03:24;;;;;;;1.55;0.80;;;10.40;99.90;;;;;;5055505;28;20020;-51
2023/10/20 12:05:51;;;;;;;4.15;0.93;;;10.40;99.90;;;;;;5073282;28;20106;-52
2023/10/20 12:08:17;;;;;;;1.10;0.95;;;10.40;99.90;;;;;;5073930;28;20488;-51
2023/10/20 12:10:43;;;;;;;0.80;0.70;;;10.40;99.90;;;;;;5074070;28;20095;-50
2023/10/20 12:13:08;;;;;;;0.85;0.80;;;10.40;99.90;;;;;;5073565;28;20144;-54
2023/10/20 12:15:36;;;;;;;1.88;0.63;;;10.40;99.90;;;;;;5073260;28;20020;-54
2023/10/20 12:18:01;;;;;;;1.05;0.80;;;10.50;99.90;;;;;;5073674;28;20021;-49
2023/10/20 12:20:27;;;;;;;0.75;0.60;;;10.40;99.90;;;;;;5072559;28;20028;-53
2023/10/20 12:22:58;;;;;;;0.88;0.70;;;10.50;99.90;;;;;;5073340;28;20024;-52
2023/10/20 12:25:25;;;;;;;1.05;0.70;;;10.60;99.90;;;;;;5073721;28;20039;-50
2023/10/20 12:27:51;;;;;;;0.80;0.73;;;10.60;99.90;;;;;;5073242;28;20373;-50
2023/10/20 12:30:17;;;;;;;0.70;0.70;;;10.60;99.90;;;;;;5073419;28;20024;-51
2023/10/20 12:32:43;;;;;;;1.25;0.57;;;10.60;99.90;;;;;;5073117;28;20485;-51
2023/10/20 12:35:12;;;;;;;0.90;0.60;;;10.60;99.90;;;;;;5073461;28;20035;-51
2023/10/20 12:37:38;;;;;;;0.70;0.70;;;10.60;99.90;;;;;;5073482;28;20036;-45
2023/10/20 12:40:05;;;;;;;1.00;0.77;;;10.60;99.90;;;;;;5073059;28;20035;-51
2023/10/20 12:42:31;;;;;;;0.57;0.57;;;10.70;99.90;;;;;;5073058;28;20035;-49
2023/10/20 12:45:00;;;;;;;0.70;0.70;;;10.70;99.90;;;;;;5072983;28;20175;-52
2023/10/20 12:47:26;;;;;;;0.52;0.52;;;10.70;99.90;;;;;;5073257;28;20056;-53
2023/10/20 12:49:54;;;;;;;0.63;0.57;;;10.70;99.90;;;;;;5073183;28;20400;-52
2023/10/20 12:52:20;;;;;;;1.48;0.65;;;10.70;99.90;;;;;;5072406;28;20424;-51
2023/10/20 12:54:46;;;;;;;1.05;0.60;;;10.70;99.90;;;;;;5073032;28;20024;-52
2023/10/20 12:57:12;;;;;;;0.75;0.60;;;10.70;99.90;;;;;;5073085;28;20481;-52
2023/10/20 12:59:38;;;;;;;3.58;1.05;;;10.70;99.90;;;;;;5072682;28;20017;-53
2023/10/20 13:02:04;;;;;;;0.50;0.50;;;10.70;99.90;;;;;;5072337;28;20505;-51
2023/10/20 13:04:33;;;;;;;1.17;0.68;;;10.80;99.90;;;;;;5071849;28;20032;-52
2023/10/20 13:06:58;;;;;;;1.65;0.60;;;10.80;99.90;;;;;;5069852;28;20033;-45
2023/10/20 13:09:24;;;;;;;0.40;0.40;;;10.80;99.90;;;;;;5070861;28;20050;-50
2023/10/20 13:11:50;;;;;;;0.57;0.57;;;10.80;99.90;;;;;;5070707;28;20032;-49
2023/10/20 13:14:15;;;;;;;1.35;0.80;;;10.80;99.90;;;;;;5070607;28;20504;-53
2023/10/20 13:16:41;;;;;;;1.17;0.73;;;10.80;99.90;;;;;;5072996;28;20074;-50
2023/10/20 13:19:07;;;;;;;0.50;0.50;;;10.80;99.90;;;;;;5071603;28;20021;-52
2023/10/20 13:21:32;;;;;;;0.70;0.70;;;10.80;99.90;;;;;;5070180;28;20024;-44